»·PEaware :: N523JS KSAN-92CA

N523JS :: KSAN-92CA

FLIGHT INFORMATION

Flight Status: Arrived
Operator: Privately registered:
United States
More flights under this callsign
Pilot: Anonymous 2940 (2940)
Aircraft: BEECH AIRCRAFT SUPER KING AIR 350
(B350)
More flights by this aircraft type
Origin: KSAN San Diego Intl-Lindbergh
United States
Destination: 92CA Westlake Farms
United States
More flights between these airports :: More routes between these airports
Route: PEBLE6 SLI V597 FIM V107 AVE
File this flight plan on PilotEdge
Remarks:
Altitude:
(Current/Filed)
24,000ft
Speed:
(Current/Filed)
240kts
Departed: 21-Jan-16 09:12 PM
Arrived: 21-Jan-16 10:27 PM
Distance/Time
Traveled:
243nm/1:15
Distance/Time
To Go:
Arrived

Flight Plot

Page will automatically refresh every two minutes.


Map Options




Map Legend


Flown Route
Filed Route
Departure Airport
Arrival Airport
Navaid (VOR, NDB)
Fix

Horizontal Profiles

Position Reports

Time Latitude Longitude Heading Altitude Ground
Speed
21-Jan-16 20:31 32.733515 -117.180952 15 19ft 0kts
21-Jan-16 20:32 32.733516 -117.180952 15 19ft 0kts
21-Jan-16 20:33 32.733518 -117.180951 15 19ft 0kts
21-Jan-16 20:34 32.733519 -117.180951 15 19ft 0kts
21-Jan-16 20:35 32.733520 -117.180950 15 19ft 0kts
21-Jan-16 20:36 32.733521 -117.180950 15 19ft 0kts
21-Jan-16 20:37 32.733522 -117.180949 15 19ft 0kts
21-Jan-16 20:38 32.733523 -117.180949 15 19ft 0kts
21-Jan-16 20:39 32.733524 -117.180948 15 19ft 0kts
21-Jan-16 20:40 32.733525 -117.180948 15 19ft 0kts
21-Jan-16 20:41 32.733526 -117.180948 15 19ft 0kts
21-Jan-16 20:42 32.733527 -117.180947 15 19ft 0kts
21-Jan-16 20:43 32.733529 -117.180947 15 19ft 0kts
21-Jan-16 20:44 32.733530 -117.180946 15 19ft 0kts
21-Jan-16 20:45 32.733531 -117.180946 15 19ft 0kts
21-Jan-16 20:46 32.733532 -117.180945 15 19ft 0kts
21-Jan-16 20:47 32.733533 -117.180945 15 19ft 0kts
21-Jan-16 20:48 32.733534 -117.180944 15 19ft 0kts
21-Jan-16 20:49 32.733535 -117.180944 15 19ft 0kts
21-Jan-16 20:50 32.733566 -117.180933 15 19ft 0kts
21-Jan-16 20:51 32.733567 -117.180932 15 19ft 0kts
21-Jan-16 20:52 32.733569 -117.180932 15 19ft 0kts
21-Jan-16 20:53 32.733570 -117.180931 15 19ft 0kts
21-Jan-16 20:54 32.733571 -117.180931 15 19ft 0kts
21-Jan-16 20:55 32.733572 -117.180930 15 19ft 0kts
21-Jan-16 20:56 32.733574 -117.180930 15 19ft 0kts
21-Jan-16 20:57 32.733575 -117.180929 15 19ft 0kts
21-Jan-16 20:58 32.733517 -117.180552 167 19ft 0kts
21-Jan-16 20:59 32.733516 -117.180551 167 19ft 0kts
21-Jan-16 21:00 32.733134 -117.179195 113 19ft 17kts
21-Jan-16 21:01 32.730733 -117.175093 196 19ft 0kts
21-Jan-16 21:02 32.730732 -117.175093 196 19ft 0kts
21-Jan-16 21:03 32.730730 -117.175094 196 19ft 0kts
21-Jan-16 21:04 32.730729 -117.175094 196 19ft 0kts
21-Jan-16 21:05 32.730728 -117.175095 196 19ft 0kts
21-Jan-16 21:06 32.730242 -117.175894 285 19ft 16kts
21-Jan-16 21:07 32.737972 -117.214272 281 2372ft 176kts
21-Jan-16 21:08 32.764482 -117.271393 304 4444ft 206kts
21-Jan-16 21:09 32.797931 -117.327074 303 6453ft 207kts
21-Jan-16 21:10 32.833571 -117.378241 304 9010ft 187kts
21-Jan-16 21:11 32.867517 -117.425632 304 12051ft 185kts
21-Jan-16 21:12 32.907380 -117.473522 321 13873ft 223kts
21-Jan-16 21:13 32.964896 -117.509537 309 13974ft 230kts
21-Jan-16 21:14 33.005752 -117.566809 301 13973ft 226kts
21-Jan-16 21:15 33.044836 -117.626213 301 13975ft 226kts
21-Jan-16 21:16 33.083118 -117.684237 301 14610ft 209kts
21-Jan-16 21:17 33.118320 -117.738278 301 16345ft 204kts
21-Jan-16 21:18 33.154300 -117.793655 301 18039ft 217kts
21-Jan-16 21:19 33.195416 -117.841265 331 19795ft 223kts
21-Jan-16 21:20 33.254884 -117.862469 330 21538ft 221kts
21-Jan-16 21:21 33.313452 -117.883686 330 23278ft 217kts
21-Jan-16 21:22 33.374619 -117.906116 330 23973ft 244kts
21-Jan-16 21:23 33.441470 -117.930223 330 23972ft 255kts
21-Jan-16 21:24 33.509778 -117.954986 330 23970ft 256kts
21-Jan-16 21:25 33.578468 -117.979989 330 23969ft 258kts
21-Jan-16 21:26 33.647701 -118.005247 330 23971ft 261kts
21-Jan-16 21:27 33.717387 -118.030641 331 23913ft 265kts
21-Jan-16 21:28 33.787675 -118.057235 325 23914ft 258kts
21-Jan-16 21:29 33.852208 -118.094540 323 23917ft 257kts
21-Jan-16 21:30 33.916903 -118.131597 323 23916ft 257kts
21-Jan-16 21:31 33.981613 -118.168860 323 23906ft 257kts
21-Jan-16 21:32 34.046034 -118.206029 323 23909ft 257kts
21-Jan-16 21:33 34.078090 -118.224368 323 23911ft 256kts
21-Jan-16 21:34 34.142523 -118.261785 323 23920ft 256kts
21-Jan-16 21:35 34.195310 -118.313890 308 23923ft 243kts
21-Jan-16 21:36 34.243380 -118.371146 293 23923ft 234kts
21-Jan-16 21:37 34.245780 -118.445549 256 23924ft 228kts
21-Jan-16 21:38 34.233479 -118.518299 284 23921ft 222kts
21-Jan-16 21:39 34.256577 -118.587459 287 23919ft 219kts
21-Jan-16 21:40 34.281975 -118.654477 288 23922ft 218kts
21-Jan-16 21:41 34.304901 -118.722245 286 23923ft 215kts
21-Jan-16 21:42 34.326480 -118.788390 286 23918ft 209kts
21-Jan-16 21:43 34.326480 -118.788390 286 23918ft 209kts
21-Jan-16 21:44 34.345550 -118.846726 286 23914ft 181kts
21-Jan-16 21:45 34.373677 -118.896471 313 23914ft 196kts
21-Jan-16 21:46 34.413170 -118.928572 312 23911ft 196kts
21-Jan-16 21:47 34.458161 -118.966080 312 23911ft 196kts
21-Jan-16 21:48 34.504900 -119.005038 313 23910ft 197kts
21-Jan-16 21:49 34.549419 -119.042355 311 23911ft 192kts
21-Jan-16 21:50 34.590978 -119.077405 311 23911ft 192kts
21-Jan-16 21:51 34.620114 -119.102332 313 23873ft 219kts
21-Jan-16 21:52 34.659331 -119.134310 311 24714ft 192kts
21-Jan-16 21:53 34.704225 -119.172622 311 24237ft 194kts
21-Jan-16 21:54 34.748379 -119.209949 312 24228ft 193kts
21-Jan-16 21:55 34.800406 -119.253895 312 24228ft 195kts
21-Jan-16 21:56 34.837662 -119.285371 312 24228ft 195kts
21-Jan-16 21:57 34.882310 -119.323169 312 24228ft 195kts
21-Jan-16 21:58 34.926939 -119.361006 312 24228ft 195kts
21-Jan-16 21:59 34.971559 -119.398886 312 24228ft 195kts
21-Jan-16 22:00 35.016007 -119.436672 312 24228ft 195kts
21-Jan-16 22:01 35.060756 -119.474764 312 24228ft 195kts
21-Jan-16 22:02 35.105333 -119.512765 312 24185ft 196kts
21-Jan-16 22:03 35.152404 -119.553187 314 22854ft 210kts
21-Jan-16 22:04 35.201084 -119.594692 316 21648ft 215kts
21-Jan-16 22:05 35.250757 -119.637173 317 20444ft 219kts
21-Jan-16 22:06 35.301526 -119.680667 316 19240ft 225kts
21-Jan-16 22:07 35.353185 -119.725036 317 18037ft 227kts
21-Jan-16 22:08 35.405050 -119.769645 317 16837ft 228kts
21-Jan-16 22:09 35.457378 -119.814717 317 15633ft 229kts
21-Jan-16 22:10 35.510143 -119.860278 318 14233ft 233kts
21-Jan-16 22:11 35.563343 -119.906252 318 12807ft 233kts
21-Jan-16 22:12 35.615398 -119.951227 318 12231ft 221kts
21-Jan-16 22:13 35.669765 -119.984641 353 12233ft 237kts
21-Jan-16 22:14 35.736126 -119.970792 7 12152ft 247kts
21-Jan-16 22:15 35.805233 -119.944766 13 10380ft 266kts
21-Jan-16 22:16 35.876166 -119.913221 13 7370ft 269kts
21-Jan-16 22:17 35.946171 -119.886074 13 3575ft 249kts
21-Jan-16 22:18 36.008928 -119.864773 12 1200ft 200kts
21-Jan-16 22:19 36.048441 -119.861779 346 1216ft 116kts
21-Jan-16 22:20 36.082055 -119.869925 346 1248ft 116kts
21-Jan-16 22:21 36.110906 -119.883422 333 258ft 97kts
21-Jan-16 22:22 36.116605 -119.886732 335 196ft 0kts
21-Jan-16 22:23 36.116606 -119.886733 335 196ft 0kts
21-Jan-16 22:24 36.116607 -119.886734 335 196ft 0kts
21-Jan-16 22:25 36.116609 -119.886735 335 196ft 0kts

Navigation Log

Ident Type
Flight plan parsing failed, navigation log unavailable